Time;durP1;ratioP1;P1;durP2;ratioP2;P2;SDS_P1;SDS_P2;PMS_P1;PMS_P2;Temp;Humidity;BMP_temperature;BMP_pressure;BME280_temperature;BME280_humidity;BME280_pressure;Samples;Min_cycle;Max_cycle;Signal;HPM_P1;HPM_P2
2022/12/27 00:04:16;;;;;;;30.88;13.23;;;;;;;1.19;100.00;101371.47;10447974;28;20067;-75
2022/12/27 00:09:17;;;;;;;26.33;13.20;;;;;;;1.09;100.00;101359.81;10458836;28;20048;-75
2022/12/27 00:14:18;;;;;;;28.80;14.02;;;;;;;1.17;100.00;101372.47;10424507;28;20033;-75
2022/12/27 00:19:19;;;;;;;27.17;13.75;;;;;;;1.17;100.00;101367.22;10416430;28;20037;-74
2022/12/27 00:24:20;;;;;;;29.67;13.30;;;;;;;0.81;100.00;101300.28;10423382;28;20132;-74
2022/12/27 00:29:21;;;;;;;45.38;14.27;;;;;;;1.09;100.00;101357.19;10457574;28;20064;-75
2022/12/27 00:34:21;;;;;;;24.88;13.25;;;;;;;1.17;100.00;101365.47;10457638;28;20041;-75
2022/12/27 00:39:22;;;;;;;39.28;14.75;;;;;;;0.82;100.00;101328.94;10455657;28;20037;-75
2022/12/27 00:44:23;;;;;;;43.50;14.25;;;;;;;0.89;100.00;101345.16;10457884;28;20071;-75
2022/12/27 00:49:24;;;;;;;43.90;12.38;;;;;;;0.91;100.00;101353.78;10456712;28;20053;-75
2022/12/27 00:54:25;;;;;;;48.10;12.40;;;;;;;0.93;100.00;101372.88;10456086;28;20543;-75
2022/12/27 00:59:26;;;;;;;65.65;12.95;;;;;;;0.72;100.00;101317.28;10457039;28;20485;-75
2022/12/27 01:04:26;;;;;;;81.82;14.40;;;;;;;1.01;100.00;101356.75;10456463;28;20041;-75
2022/12/27 01:09:27;;;;;;;85.45;13.50;;;;;;;0.45;100.00;101299.50;10455863;28;20086;-75
2022/12/27 01:14:28;;;;;;;185.55;15.80;;;;;;;0.36;100.00;101276.47;10455131;28;20044;-75
2022/12/27 01:19:29;;;;;;;94.50;13.90;;;;;;;0.94;100.00;101387.63;10455757;28;20074;-75
2022/12/27 01:24:30;;;;;;;58.40;15.60;;;;;;;0.64;100.00;101337.75;10455481;28;20051;-75
2022/12/27 01:29:31;;;;;;;151.35;16.40;;;;;;;0.81;100.00;101369.13;10455306;28;20095;-75
2022/12/27 01:34:32;;;;;;;88.72;15.23;;;;;;;0.72;100.00;101356.53;10454700;28;20087;-75
2022/12/27 01:39:32;;;;;;;58.47;13.93;;;;;;;0.79;100.00;101351.81;10455529;28;20524;-75
2022/12/27 01:44:37;;;;;;;59.92;14.15;;;;;;;0.85;100.00;101385.50;10454687;28;20032;-75
2022/12/27 01:49:45;;;;;;;76.32;16.52;;;;;;;0.32;100.00;101303.66;10453553;28;20473;-75
2022/12/27 01:54:46;;;;;;;154.98;19.23;;;;;;;0.67;100.00;101384.69;10448249;28;20500;-75
2022/12/27 01:59:47;;;;;;;91.88;17.30;;;;;;;0.54;100.00;101380.97;10448078;28;20045;-75
2022/12/27 02:04:48;;;;;;;68.05;17.50;;;;;;;0.55;100.00;101364.38;10448116;28;20040;-75
2022/12/27 02:09:55;;;;;;;80.45;18.55;;;;;;;0.09;100.00;101275.25;10454009;28;20497;-75
2022/12/27 02:14:57;;;;;;;72.60;17.60;;;;;;;0.68;100.00;101349.75;10454151;28;20076;-75
2022/12/27 02:20:16;;;;;;;90.07;17.90;;;;;;;0.71;100.00;101354.81;10453612;28;20124;-75
2022/12/27 02:25:36;;;;;;;81.38;18.67;;;;;;;0.75;100.00;101379.03;10453932;28;20381;-75
2022/12/27 02:30:37;;;;;;;39.05;15.32;;;;;;;0.68;100.00;101371.50;10453433;28;20066;-75
2022/12/27 02:35:52;;;;;;;201.55;19.85;;;;;;;0.10;100.00;101276.94;10454465;28;20102;-77
2022/12/27 02:57:35;;;;;;;53.50;17.00;;;;;;;0.61;100.00;101385.00;10370801;28;20457;-76
2022/12/27 03:03:22;;;;;;;108.47;18.05;;;;;;;0.57;100.00;101389.53;10406404;28;20048;-76
2022/12/27 03:08:36;;;;;;;89.85;17.90;;;;;;;0.44;100.00;101380.59;10420218;28;20041;-76
2022/12/27 03:25:26;;;;;;;37.45;10.45;;;;;;;0.54;100.00;101394.06;10413618;28;20033;-77
2022/12/27 03:46:45;;;;;;;23.98;10.73;;;;;;;0.45;100.00;101396.22;10410298;28;20045;-79
2022/12/27 03:51:51;;;;;;;22.67;10.90;;;;;;;-0.07;100.00;101317.81;10459412;28;20083;-78
2022/12/27 03:56:56;;;;;;;47.70;12.68;;;;;;;-0.04;100.00;101341.16;10458665;28;20044;-77
2022/12/27 04:01:57;;;;;;;32.25;12.02;;;;;;;0.37;100.00;101401.00;10458140;28;20045;-81
2022/12/27 04:06:58;;;;;;;32.55;12.13;;;;;;;0.34;100.00;101377.63;10458770;28;20036;-87
2022/12/27 04:38:35;;;;;;;42.10;12.02;;;;;;;-0.18;100.00;101312.28;10377033;28;20077;-84
2022/12/27 05:04:58;;;;;;;37.97;10.80;;;;;;;-0.24;100.00;101323.00;10410326;28;20045;-75
2022/12/27 05:15:21;;;;;;;20.00;7.10;;;;;;;0.12;100.00;101403.09;10413659;28;20071;-75
2022/12/27 05:20:22;;;;;;;17.25;7.60;;;;;;;0.09;100.00;101406.75;10414729;28;20486;-75
2022/12/27 05:25:36;;;;;;;38.50;7.68;;;;;;;-0.33;100.00;101320.84;10414518;28;20037;-74
2022/12/27 05:30:39;;;;;;;27.70;7.50;;;;;;;0.03;100.00;101387.88;10413673;28;20049;-74
2022/12/27 05:35:40;;;;;;;21.60;7.18;;;;;;;0.04;100.00;101400.03;10413995;28;20171;-74
2022/12/27 05:40:40;;;;;;;21.67;7.88;;;;;;;0.09;100.00;101404.13;10413251;28;20128;-75
2022/12/27 05:45:41;;;;;;;17.30;7.82;;;;;;;-0.05;100.00;101380.44;10413341;28;20540;-75
2022/12/27 05:50:42;;;;;;;40.85;9.45;;;;;;;0.09;100.00;101411.09;10414156;28;20076;-74
2022/12/27 05:55:53;;;;;;;34.30;9.02;;;;;;;-0.24;100.00;101336.06;10412630;28;20566;-73
2022/12/27 06:00:53;;;;;;;26.33;9.18;;;;;;;0.17;100.00;101403.75;10412835;28;20084;-74
2022/12/27 06:06:02;;;;;;;29.38;8.65;;;;;;;0.10;100.00;101410.19;10413132;28;20068;-74
2022/12/27 06:11:08;;;;;;;14.05;7.95;;;;;;;-0.04;100.00;101390.78;10413079;28;20054;-74
2022/12/27 06:16:11;;;;;;;18.65;9.43;;;;;;;0.16;100.00;101415.97;10412988;28;20044;-73
2022/12/27 06:21:18;;;;;;;31.15;10.60;;;;;;;0.25;100.00;101425.13;10412594;28;20048;-73
2022/12/27 06:26:18;;;;;;;30.70;10.07;;;;;;;0.01;100.00;101384.53;10411541;28;20095;-75
2022/12/27 06:31:20;;;;;;;22.15;10.82;;;;;;;-0.06;100.00;101348.25;10412693;28;20124;-75
2022/12/27 06:36:26;;;;;;;54.58;10.18;;;;;;;0.27;100.00;101394.53;10412695;28;20486;-75
2022/12/27 06:41:27;;;;;;;51.03;10.45;;;;;;;0.61;100.00;101442.53;10413179;28;20046;-75
2022/12/27 06:46:27;;;;;;;55.45;11.98;;;;;;;0.32;100.00;101374.22;10421147;28;20045;-72
2022/12/27 06:51:28;;;;;;;21.42;10.52;;;;;;;0.67;100.00;101429.13;10419446;28;20053;-74
2022/12/27 06:56:29;;;;;;;39.55;10.57;;;;;;;0.71;100.00;101429.81;10419442;28;20556;-74
2022/12/27 07:01:30;;;;;;;38.05;9.60;;;;;;;0.42;100.00;101359.78;10419380;28;20050;-74
2022/12/27 07:06:33;;;;;;;27.98;10.70;;;;;;;0.94;100.00;101423.41;10419999;28;20064;-74
2022/12/27 07:11:36;;;;;;;16.45;9.48;;;;;;;1.13;100.00;101445.06;10419463;28;20037;-74
2022/12/27 07:16:37;;;;;;;25.00;9.90;;;;;;;1.27;100.00;101432.09;10419416;28;20033;-74
2022/12/27 07:21:37;;;;;;;42.20;9.35;;;;;;;0.81;100.00;101345.56;10419270;28;20045;-73
2022/12/27 07:26:38;;;;;;;37.28;9.90;;;;;;;0.82;100.00;101356.88;10418545;28;20042;-75
2022/12/27 07:31:39;;;;;;;16.95;9.20;;;;;;;1.31;100.00;101432.78;10419340;28;20401;-74
2022/12/27 07:36:40;;;;;;;18.92;9.13;;;;;;;1.08;100.00;101392.16;10419148;28;20042;-74
2022/12/27 07:41:41;;;;;;;25.88;10.23;;;;;;;1.39;100.00;101424.53;10418898;28;20041;-74
2022/12/27 07:46:42;;;;;;;17.20;9.70;;;;;;;1.00;100.00;101352.44;10417481;28;20041;-74
2022/12/27 07:51:43;;;;;;;19.45;9.45;;;;;;;1.07;100.00;101362.50;10418638;28;20061;-73
2022/12/27 07:56:43;;;;;;;29.10;12.15;;;;;;;0.70;100.00;101307.84;10417579;28;20044;-74
2022/12/27 08:07:17;;;;;;;41.78;11.75;;;;;;;1.25;100.00;101354.59;10416905;28;20041;-74
2022/12/27 08:12:18;;;;;;;20.40;10.70;;;;;;;1.45;100.00;101369.22;10416612;28;20049;-74
2022/12/27 08:17:22;;;;;;;20.95;11.98;;;;;;;1.39;100.00;101343.38;10417047;28;20124;-74
2022/12/27 08:22:23;;;;;;;18.25;11.23;;;;;;;1.34;100.00;101328.72;10416341;28;20067;-74
2022/12/27 08:27:24;;;;;;;21.40;12.07;;;;;;;1.02;100.00;101232.88;10415973;28;20037;-74
2022/12/27 08:32:25;;;;;;;19.85;11.43;;;;;;;1.31;100.00;101265.25;10416909;28;20110;-74
2022/12/27 08:37:26;;;;;;;18.65;11.48;;;;;;;1.47;100.00;101294.03;10416225;28;20552;-75
2022/12/27 08:42:26;;;;;;;21.67;11.57;;;;;;;1.70;100.00;101325.00;10416253;28;20049;-76
2022/12/27 08:47:27;;;;;;;20.50;12.60;;;;;;;1.63;100.00;101328.91;10416347;28;20107;-74
2022/12/27 08:52:28;;;;;;;20.85;12.05;;;;;;;1.37;100.00;101278.00;10415513;28;20045;-74
2022/12/27 08:57:29;;;;;;;18.83;11.90;;;;;;;1.89;100.00;101334.44;10415456;28;20037;-74
2022/12/27 09:02:29;;;;;;;23.63;13.05;;;;;;;1.98;100.00;101331.31;10414835;28;20116;-74
2022/12/27 09:07:31;;;;;;;19.58;11.77;;;;;;;1.21;100.00;101193.41;10414224;28;20040;-74
2022/12/27 09:12:32;;;;;;;21.42;10.85;;;;;;;1.82;100.00;101284.16;10414775;28;20050;-74
2022/12/27 09:17:33;;;;;;;21.35;11.25;;;;;;;1.86;100.00;101318.91;10414725;28;20128;-74
2022/12/27 09:22:34;;;;;;;18.67;11.63;;;;;;;1.93;100.00;101304.50;10414407;28;20052;-74
2022/12/27 09:27:36;;;;;;;18.90;11.45;;;;;;;2.16;100.00;101303.19;10414765;28;20037;-74
2022/12/27 09:32:37;;;;;;;16.60;11.85;;;;;;;2.15;100.00;101283.97;10414143;28;20042;-74
2022/12/27 09:37:38;;;;;;;18.48;11.70;;;;;;;2.34;100.00;101303.88;10413380;28;20034;-75
2022/12/27 09:42:52;;;;;;;17.38;10.80;;;;;;;2.08;100.00;101235.47;10414006;28;20045;-75
2022/12/27 09:48:21;;;;;;;20.88;10.88;;;;;;;2.20;100.00;101262.72;10413131;28;20473;-74
2022/12/27 09:53:46;;;;;;;23.20;13.00;;;;;;;2.14;100.00;101244.75;10412913;28;20076;-74
2022/12/27 09:58:52;;;;;;;20.80;10.98;;;;;;;2.15;100.00;101249.88;10412928;28;20065;-74
2022/12/27 10:03:53;;;;;;;18.35;11.88;;;;;;;2.21;100.00;101261.78;10411603;28;20128;-75
2022/12/27 10:09:03;;;;;;;19.63;11.57;;;;;;;2.34;100.00;101269.78;10412572;28;20142;-74
2022/12/27 10:14:20;;;;;;;24.15;13.38;;;;;;;2.45;100.00;101267.34;10413579;28;20095;-75
2022/12/27 10:19:59;;;;;;;20.73;12.80;;;;;;;2.54;100.00;101274.63;10418156;28;20178;-75
2022/12/27 10:25:07;;;;;;;22.75;12.98;;;;;;;2.45;100.00;101264.72;10420862;28;20049;-75
2022/12/27 10:30:15;;;;;;;31.73;13.63;;;;;;;2.54;100.00;101244.94;10420421;28;20528;-75
2022/12/27 10:35:19;;;;;;;25.02;13.55;;;;;;;2.66;100.00;101268.66;10421103;28;20053;-75
2022/12/27 10:40:27;;;;;;;21.35;13.85;;;;;;;2.75;100.00;101254.09;10420852;28;20465;-75
2022/12/27 10:45:46;;;;;;;22.58;13.90;;;;;;;2.81;100.00;101214.38;10420333;28;20041;-74
2022/12/27 10:50:52;;;;;;;25.42;14.48;;;;;;;2.79;100.00;101169.03;10420490;28;20057;-76
2022/12/27 10:56:22;;;;;;;27.88;16.05;;;;;;;3.69;98.87;101242.88;10419968;28;20037;-74
2022/12/27 11:01:26;;;;;;;26.85;15.98;;;;;;;3.87;98.38;101239.88;10419509;28;20073;-75
2022/12/27 11:06:27;;;;;;;26.75;16.25;;;;;;;3.96;97.78;101230.53;10419665;28;20123;-75
2022/12/27 11:11:28;;;;;;;25.60;16.15;;;;;;;3.43;97.56;101179.75;10419548;28;20608;-75
2022/12/27 11:16:33;;;;;;;28.85;16.65;;;;;;;3.94;97.74;101257.84;10418909;28;20033;-75
2022/12/27 11:21:39;;;;;;;29.55;17.30;;;;;;;3.77;97.01;101209.91;10418618;28;20448;-75
2022/12/27 11:26:50;;;;;;;30.23;18.25;;;;;;;3.97;97.75;101203.28;10419210;28;20038;-74
2022/12/27 11:31:52;;;;;;;31.33;19.77;;;;;;;4.08;97.88;101227.06;10417800;28;20055;-75
2022/12/27 11:37:00;;;;;;;32.20;20.15;;;;;;;3.91;97.98;101224.72;10418447;28;20037;-75
2022/12/27 11:42:05;;;;;;;34.33;20.70;;;;;;;3.77;98.16;101216.91;10418468;28;20037;-75
2022/12/27 11:47:31;;;;;;;36.92;22.42;;;;;;;3.69;97.18;101208.72;10418113;28;20049;-74
2022/12/27 11:52:38;;;;;;;37.50;22.80;;;;;;;3.49;98.73;101210.88;10417260;28;20051;-75
2022/12/27 11:58:15;;;;;;;39.83;23.05;;;;;;;3.28;98.82;101201.78;10417317;28;20044;-75
2022/12/27 12:03:22;;;;;;;38.05;22.23;;;;;;;2.83;99.34;101153.94;10417976;28;20083;-75
2022/12/27 12:09:03;;;;;;;39.10;22.50;;;;;;;2.97;99.67;101172.25;10416789;28;20036;-77
2022/12/27 12:14:09;;;;;;;48.42;22.70;;;;;;;2.73;99.86;101136.16;10416690;28;20049;-78
2022/12/27 12:19:33;;;;;;;41.58;24.88;;;;;;;3.14;100.00;101202.66;10428006;28;20072;-77
2022/12/27 12:24:59;;;;;;;36.25;22.60;;;;;;;2.83;99.79;101175.75;10418851;28;20049;-77
2022/12/27 12:30:24;;;;;;;38.72;22.40;;;;;;;2.76;100.00;101148.25;10424488;28;20037;-77
2022/12/27 12:36:02;;;;;;;36.90;23.27;;;;;;;3.15;100.00;101220.94;10425847;28;20045;-77
2022/12/27 12:41:22;;;;;;;37.53;22.70;;;;;;;3.01;99.91;101221.00;10421420;28;20041;-80
2022/12/27 12:46:41;;;;;;;38.55;22.70;;;;;;;2.96;100.00;101217.81;10453367;28;20043;-76
2022/12/27 12:51:55;;;;;;;36.50;21.98;;;;;;;2.41;100.00;101132.94;10417573;28;20065;-76
2022/12/27 12:57:17;;;;;;;39.65;24.45;;;;;;;2.90;100.00;101220.81;10389592;28;20444;-76
2022/12/27 13:02:36;;;;;;;40.47;23.75;;;;;;;2.85;100.00;101231.63;10403113;28;20139;-77
2022/12/27 13:07:43;;;;;;;34.92;22.38;;;;;;;1.99;100.00;101091.88;10391189;28;20049;-76
2022/12/27 13:13:10;;;;;;;37.08;22.38;;;;;;;2.72;100.00;101225.44;10388103;28;20132;-76
2022/12/27 13:18:56;;;;;;;43.95;23.77;;;;;;;2.71;100.00;101231.63;10381819;28;20048;-76
2022/12/27 13:24:06;;;;;;;40.97;23.90;;;;;;;2.72;100.00;101225.44;10386978;28;20053;-77
2022/12/27 13:29:57;;;;;;;40.95;23.33;;;;;;;2.66;100.00;101226.69;10390812;28;20548;-76
2022/12/27 13:35:20;;;;;;;38.75;23.20;;;;;;;2.60;100.00;101216.56;10381791;28;20188;-76
2022/12/27 13:40:45;;;;;;;40.28;22.83;;;;;;;2.58;100.00;101222.84;10396706;28;20103;-77
2022/12/27 13:46:04;;;;;;;41.28;22.60;;;;;;;2.53;100.00;101220.50;10387567;28;20493;-78
2022/12/27 13:51:23;;;;;;;41.55;23.48;;;;;;;2.46;100.00;101212.19;10395512;28;20532;-77
2022/12/27 13:56:44;;;;;;;41.92;23.80;;;;;;;2.25;100.00;101213.50;10406926;28;20128;-77
2022/12/27 14:02:11;;;;;;;53.55;28.60;;;;;;;2.02;100.00;101199.97;10427635;28;20128;-77
2022/12/27 14:07:46;;;;;;;44.20;25.27;;;;;;;1.90;100.00;101197.25;10444251;28;20539;-76
2022/12/27 14:12:58;;;;;;;46.85;26.52;;;;;;;1.28;100.00;101130.13;10412658;28;20045;-76
2022/12/27 14:18:21;;;;;;;51.80;28.40;;;;;;;1.49;100.00;101185.66;10412743;28;20111;-77
2022/12/27 14:23:41;;;;;;;45.50;26.73;;;;;;;1.47;100.00;101198.00;10423395;28;20041;-77
2022/12/27 14:29:20;;;;;;;44.22;25.77;;;;;;;1.37;100.00;101195.06;10454059;28;20128;-77
2022/12/27 14:34:47;;;;;;;45.65;25.95;;;;;;;1.29;100.00;101202.53;10453349;28;20048;-77
2022/12/27 14:40:12;;;;;;;43.30;26.05;;;;;;;1.21;100.00;101193.41;10453301;28;20048;-77
2022/12/27 14:45:45;;;;;;;40.83;23.60;;;;;;;0.36;100.00;101056.91;10453697;28;20529;-78
2022/12/27 14:50:55;;;;;;;42.42;23.85;;;;;;;1.13;100.00;101189.44;10452832;28;20092;-77
2022/12/27 14:56:15;;;;;;;42.28;22.05;;;;;;;1.15;100.00;101186.75;10452285;28;20079;-77
2022/12/27 15:01:31;;;;;;;40.63;23.52;;;;;;;0.79;100.00;101177.41;10417465;28;20545;-76
2022/12/27 15:06:50;;;;;;;54.08;26.83;;;;;;;0.53;100.00;101164.91;10418393;28;20041;-77
2022/12/27 15:12:04;;;;;;;52.83;28.42;;;;;;;0.45;100.00;101160.97;10378196;28;20077;-74
2022/12/27 15:17:10;;;;;;;52.10;27.08;;;;;;;0.45;100.00;101170.56;10378669;28;20567;-76
2022/12/27 15:22:23;;;;;;;56.33;28.35;;;;;;;0.12;100.00;101141.84;10375491;28;20045;-73
2022/12/27 15:27:54;;;;;;;52.70;27.38;;;;;;;-0.16;100.00;101101.50;10378227;28;20038;-77
2022/12/27 15:33:02;;;;;;;49.65;27.92;;;;;;;0.08;100.00;101164.69;10409693;28;20578;-77
2022/12/27 15:38:39;;;;;;;50.13;23.60;;;;;;;0.26;100.00;101186.38;10426376;28;20041;-78
2022/12/27 15:43:58;;;;;;;35.67;21.77;;;;;;;-0.25;100.00;101107.22;10432824;28;20037;-76
2022/12/27 15:49:26;;;;;;;36.03;21.45;;;;;;;0.04;100.00;101165.78;10459022;28;20088;-77
2022/12/27 15:54:37;;;;;;;35.83;20.90;;;;;;;-0.02;100.00;101174.78;10447251;28;20068;-78
2022/12/27 16:00:03;;;;;;;44.10;20.20;;;;;;;-0.49;100.00;101084.06;10417445;28;20037;-76
2022/12/27 16:05:24;;;;;;;65.72;19.92;;;;;;;-0.03;100.00;101159.16;10417011;28;20037;-76
2022/12/27 16:10:28;;;;;;;106.03;20.38;;;;;;;-0.15;100.00;101157.19;10404089;28;20080;-77
2022/12/27 16:15:49;;;;;;;100.83;20.97;;;;;;;-0.21;100.00;101166.19;10410962;28;20143;-78
2022/12/27 16:21:14;;;;;;;82.57;20.58;;;;;;;-0.37;100.00;101139.19;10416132;28;20045;-78
2022/12/27 16:26:15;;;;;;;56.95;19.30;;;;;;;-0.35;100.00;101163.44;10422671;28;20497;-78
2022/12/27 16:31:21;;;;;;;52.45;18.98;;;;;;;-0.51;100.00;101138.13;10404874;28;20061;-76
2022/12/27 16:36:31;;;;;;;78.47;20.30;;;;;;;-0.64;100.00;101113.56;10439012;28;20056;-77
2022/12/27 16:41:41;;;;;;;52.90;18.38;;;;;;;-0.59;100.00;101111.56;10421358;28;20037;-74
2022/12/27 16:46:54;;;;;;;85.13;18.58;;;;;;;-0.35;100.00;101139.97;10417340;28;20413;-75
2022/12/27 16:52:15;;;;;;;51.10;17.60;;;;;;;-0.86;100.00;101055.56;10405802;28;20060;-75
2022/12/27 16:57:25;;;;;;;28.90;16.75;;;;;;;-0.42;100.00;101138.56;10394257;28;20124;-75
2022/12/27 17:02:39;;;;;;;35.42;18.92;;;;;;;-0.45;100.00;101131.72;10385358;28;20087;-74
2022/12/27 17:07:52;;;;;;;29.80;16.52;;;;;;;-0.48;100.00;101119.69;10404752;28;20492;-74
2022/12/27 17:12:59;;;;;;;29.30;15.73;;;;;;;-0.53;100.00;101108.66;10413041;28;20046;-74
2022/12/27 17:18:13;;;;;;;28.00;16.55;;;;;;;-0.60;100.00;101103.81;10418656;28;20033;-73
2022/12/27 17:23:15;;;;;;;29.52;15.48;;;;;;;-0.67;100.00;101089.38;10390497;28;20063;-74
2022/12/27 17:28:28;;;;;;;35.10;16.88;;;;;;;-1.23;100.00;100987.00;10405305;28;20079;-74
2022/12/27 17:33:55;;;;;;;29.30;16.92;;;;;;;-0.58;100.00;101094.13;10422279;28;20139;-74
2022/12/27 17:39:31;;;;;;;34.00;16.58;;;;;;;-1.15;100.00;100993.50;10430996;28;20042;-74
2022/12/27 17:44:56;;;;;;;28.63;15.95;;;;;;;-0.73;100.00;101062.69;10413238;28;20049;-74
2022/12/27 17:50:01;;;;;;;29.50;16.60;;;;;;;-0.62;100.00;101085.63;10449241;28;20061;-74
2022/12/27 18:00:53;;;;;;;26.45;14.32;;;;;;;-0.52;100.00;101091.22;10424232;28;20076;-74
2022/12/27 18:05:54;;;;;;;26.00;14.35;;;;;;;-0.99;100.00;101008.38;10412204;28;20042;-74
2022/12/27 18:10:56;;;;;;;24.50;13.68;;;;;;;-0.96;100.00;101006.47;10412978;28;20045;-74
2022/12/27 18:15:57;;;;;;;21.60;13.55;;;;;;;-0.85;100.00;101010.28;10413582;28;20080;-74
2022/12/27 18:21:03;;;;;;;24.08;13.80;;;;;;;-0.53;100.00;101046.00;10412686;28;20116;-74
2022/12/27 18:26:14;;;;;;;23.50;12.95;;;;;;;-0.75;100.00;100985.41;10410990;28;20038;-75
2022/12/27 18:31:32;;;;;;;21.58;12.50;;;;;;;-0.69;100.00;100998.13;10412730;28;20037;-73
2022/12/27 18:36:33;;;;;;;21.35;12.77;;;;;;;-0.38;100.00;101043.53;10412726;28;20042;-73
2022/12/27 18:41:45;;;;;;;22.08;13.73;;;;;;;-0.86;100.00;100959.06;10419722;28;20405;-74
2022/12/27 18:46:57;;;;;;;20.58;12.52;;;;;;;-0.33;100.00;101031.91;10420700;28;20042;-74
2022/12/27 18:51:58;;;;;;;29.65;13.63;;;;;;;-0.36;100.00;101024.25;10420892;28;20065;-74
2022/12/27 18:57:03;;;;;;;26.23;11.88;;;;;;;-0.37;100.00;101013.88;10425297;28;20045;-74
2022/12/27 19:02:33;;;;;;;20.60;12.00;;;;;;;-0.30;100.00;101004.78;10419852;28;20040;-74
2022/12/27 19:07:34;;;;;;;19.67;12.02;;;;;;;-1.00;100.00;100908.44;10454594;28;20511;-74
2022/12/27 19:12:38;;;;;;;19.70;12.18;;;;;;;-0.67;100.00;100951.09;10459796;28;20123;-75
2022/12/27 19:17:41;;;;;;;18.83;12.25;;;;;;;-0.88;100.00;100898.28;10460795;28;20048;-75
2022/12/27 19:22:50;;;;;;;20.60;12.67;;;;;;;-0.94;100.00;100918.56;10460477;28;20045;-74
2022/12/27 19:28:00;;;;;;;20.80;12.23;;;;;;;-0.38;100.00;100983.50;10460271;28;20037;-75
2022/12/27 19:33:04;;;;;;;20.85;11.73;;;;;;;-0.38;100.00;101001.75;10410188;28;20042;-73
2022/12/27 19:38:04;;;;;;;19.92;12.65;;;;;;;-0.27;100.00;101005.47;10395392;28;20042;-75
2022/12/27 19:43:05;;;;;;;21.75;13.43;;;;;;;-0.15;100.00;101014.44;10405293;28;20168;-73
2022/12/27 19:48:07;;;;;;;22.83;14.05;;;;;;;-0.54;100.00;100942.56;10418172;28;20570;-74
2022/12/27 19:53:17;;;;;;;18.45;11.85;;;;;;;-0.29;100.00;100969.94;10416857;28;20052;-74
2022/12/27 19:58:26;;;;;;;27.98;12.20;;;;;;;-1.22;100.00;100829.69;10418511;28;20524;-74
2022/12/27 20:03:27;;;;;;;18.75;11.52;;;;;;;-0.37;100.00;100987.78;10417263;28;20044;-74
2022/12/27 20:08:35;;;;;;;23.23;12.15;;;;;;;-0.76;100.00;100908.91;10418089;28;20053;-74
2022/12/27 20:13:36;;;;;;;19.52;12.20;;;;;;;-0.21;100.00;100978.19;10420167;28;20053;-74
2022/12/27 20:18:38;;;;;;;21.13;12.90;;;;;;;-0.44;100.00;100936.84;10416006;28;20053;-74
2022/12/27 20:23:39;;;;;;;20.70;13.18;;;;;;;-0.03;100.00;100998.09;10440505;28;20133;-74
2022/12/27 20:28:41;;;;;;;20.48;12.20;;;;;;;0.10;100.00;101006.09;10429997;28;20045;-74
2022/12/27 20:33:42;;;;;;;19.73;11.68;;;;;;;-0.07;100.00;100985.25;10417012;28;20049;-74
2022/12/27 20:38:42;;;;;;;21.85;12.70;;;;;;;-0.09;100.00;100993.19;10417385;28;20033;-74
2022/12/27 20:43:43;;;;;;;19.75;12.45;;;;;;;-0.96;100.00;100850.00;10416760;28;20132;-74
2022/12/27 20:48:45;;;;;;;17.20;11.07;;;;;;;-0.03;100.00;100992.88;10415917;28;20408;-74
2022/12/27 20:53:48;;;;;;;18.63;11.23;;;;;;;-0.05;100.00;100999.94;10415611;28;20128;-74
2022/12/27 20:58:48;;;;;;;20.40;11.73;;;;;;;0.02;100.00;100989.16;10415572;28;20068;-73
2022/12/27 21:03:49;;;;;;;18.88;10.52;;;;;;;-0.56;100.00;100883.53;10425310;28;20468;-74
2022/12/27 21:08:50;;;;;;;20.63;12.68;;;;;;;-0.19;100.00;100955.44;10415176;28;20041;-74
2022/12/27 21:13:51;;;;;;;25.95;13.98;;;;;;;-0.09;100.00;100969.69;10415340;28;20413;-75
2022/12/27 21:18:52;;;;;;;21.85;12.68;;;;;;;-0.03;100.00;100968.50;10414184;28;20060;-74
2022/12/27 21:23:53;;;;;;;24.75;12.40;;;;;;;-0.38;100.00;100908.63;10414104;28;20115;-74
2022/12/27 21:28:55;;;;;;;21.45;12.15;;;;;;;0.09;100.00;100964.34;10413907;28;20076;-74
2022/12/27 21:33:58;;;;;;;21.65;12.77;;;;;;;0.10;100.00;100963.44;10413077;28;20036;-74
2022/12/27 21:39:00;;;;;;;21.08;11.90;;;;;;;-0.30;100.00;100890.78;10414607;28;20122;-74
2022/12/27 21:44:02;;;;;;;19.77;12.30;;;;;;;0.22;100.00;100970.59;10416428;28;20509;-74
2022/12/27 21:49:08;;;;;;;20.92;11.45;;;;;;;0.08;100.00;100960.06;10445928;28;20060;-74
2022/12/27 21:54:12;;;;;;;19.10;12.02;;;;;;;-0.18;100.00;100917.09;10454228;28;20048;-73
2022/12/27 21:59:13;;;;;;;19.57;11.27;;;;;;;-0.53;100.00;100842.44;10445034;28;20041;-74
2022/12/27 22:04:14;;;;;;;20.77;11.52;;;;;;;0.12;100.00;100956.34;10413443;28;20379;-73
2022/12/27 22:09:15;;;;;;;18.25;11.27;;;;;;;-0.44;100.00;100858.53;10413166;28;20041;-74
2022/12/27 22:14:16;;;;;;;18.48;10.48;;;;;;;-0.11;100.00;100934.16;10412516;28;20033;-74
2022/12/27 22:19:17;;;;;;;17.90;10.85;;;;;;;-0.51;100.00;100864.09;10413652;28;20386;-74
2022/12/27 22:24:18;;;;;;;18.17;11.02;;;;;;;-0.10;100.00;100928.81;10424099;28;20045;-73
2022/12/27 22:29:20;;;;;;;15.88;10.30;;;;;;;-0.74;100.00;100834.03;10413395;28;20392;-74
2022/12/27 22:34:21;;;;;;;18.52;11.80;;;;;;;-0.18;100.00;100920.59;10413329;28;20072;-74
2022/12/27 22:39:22;;;;;;;16.58;10.40;;;;;;;-0.16;100.00;100925.72;10413285;28;20132;-73
2022/12/27 22:44:23;;;;;;;18.55;11.32;;;;;;;-0.63;100.00;100858.69;10412129;28;20038;-75
2022/12/27 22:49:24;;;;;;;17.73;10.23;;;;;;;-0.46;100.00;100905.59;10413157;28;20054;-73
2022/12/27 22:54:25;;;;;;;24.88;9.98;;;;;;;-0.45;100.00;100922.91;10412402;28;20057;-74
2022/12/27 22:59:26;;;;;;;16.67;10.18;;;;;;;-0.56;100.00;100912.25;10412388;28;20045;-74
2022/12/27 23:04:27;;;;;;;17.83;10.70;;;;;;;-0.53;100.00;100918.13;10421502;28;20489;-74
2022/12/27 23:09:28;;;;;;;18.08;10.38;;;;;;;-1.18;100.00;100823.38;10453019;28;20124;-73
2022/12/27 23:14:29;;;;;;;19.52;10.85;;;;;;;-0.75;100.00;100901.91;10452033;28;20450;-74
2022/12/27 23:19:30;;;;;;;13.90;9.18;;;;;;;-1.08;100.00;100842.81;10452658;28;20132;-73
2022/12/27 23:24:31;;;;;;;14.00;8.77;;;;;;;-0.66;100.00;100922.31;10454371;28;20048;-74
2022/12/27 23:29:31;;;;;;;13.98;9.40;;;;;;;-0.86;100.00;100891.25;10460781;28;20513;-74
2022/12/27 23:34:32;;;;;;;17.75;9.88;;;;;;;-0.81;100.00;100886.59;10460592;28;20528;-73
2022/12/27 23:39:33;;;;;;;18.17;10.02;;;;;;;-0.78;100.00;100876.00;10459335;28;20052;-74
2022/12/27 23:44:34;;;;;;;15.05;9.60;;;;;;;-0.62;100.00;100916.00;10458646;28;20045;-74
2022/12/27 23:49:35;;;;;;;16.33;9.52;;;;;;;-0.88;100.00;100859.16;10459647;28;20496;-74
2022/12/27 23:54:35;;;;;;;16.30;10.30;;;;;;;-1.13;100.00;100820.53;10445890;28;20125;-73
2022/12/27 23:59:36;;;;;;;15.07;9.20;;;;;;;-0.55;100.00;100913.91;10459042;28;20041;-74
